sensor_id;sensor_type;location;lat;lon;timestamp;pressure;altitude;pressure_sealevel;temperature;humidity
9229;BME280;4649;42.644;23.284;2022-12-08T07:08:47;92838.34;;;15.41;56.61
9229;BME280;4649;42.644;23.284;2022-12-08T07:13:58;92935.38;;;16.54;49.98
9229;BME280;4649;42.644;23.284;2022-12-08T07:16:49;92933.28;;;16.27;50.27
9229;BME280;4649;42.644;23.284;2022-12-08T07:19:22;92953.94;;;16.23;50.59
9229;BME280;4649;42.644;23.284;2022-12-08T07:38:18;92781.91;;;10.52;60.34
9229;BME280;4649;42.644;23.284;2022-12-08T07:41:16;92981.38;;;10.90;65.04
9229;BME280;4649;42.644;23.284;2022-12-08T07:44:02;92788.88;;;9.38;66.63
9229;BME280;4649;42.644;23.284;2022-12-08T09:01:12;92950.63;;;12.06;73.91
9229;BME280;4649;42.644;23.284;2022-12-08T09:04:31;92964.41;;;11.62;73.98
9229;BME280;4649;42.644;23.284;2022-12-08T09:07:18;92959.13;;;12.90;67.62
9229;BME280;4649;42.644;23.284;2022-12-08T09:10:33;92779.66;;;13.06;63.54
9229;BME280;4649;42.644;23.284;2022-12-08T09:13:32;92881.75;;;15.65;57.09
9229;BME280;4649;42.644;23.284;2022-12-08T09:19:38;92953.41;;;19.24;44.99
9229;BME280;4649;42.644;23.284;2022-12-08T09:22:07;92843.47;;;19.22;43.75
9229;BME280;4649;42.644;23.284;2022-12-08T09:24:37;92899.16;;;21.19;40.11
9229;BME280;4649;42.644;23.284;2022-12-08T09:27:04;92891.19;;;23.36;35.58
9229;BME280;4649;42.644;23.284;2022-12-08T09:29:32;92921.31;;;24.25;33.38
9229;BME280;4649;42.644;23.284;2022-12-08T09:31:59;92921.78;;;24.21;32.06
9229;BME280;4649;42.644;23.284;2022-12-08T09:34:26;92902.84;;;24.37;32.12
9229;BME280;4649;42.644;23.284;2022-12-08T09:37:02;92930.06;;;24.31;31.49
9229;BME280;4649;42.644;23.284;2022-12-08T09:39:29;92918.84;;;24.00;31.28
9229;BME280;4649;42.644;23.284;2022-12-08T09:41:58;92930.72;;;22.77;34.08
9229;BME280;4649;42.644;23.284;2022-12-08T09:44:45;92924.81;;;23.07;33.14
9229;BME280;4649;42.644;23.284;2022-12-08T09:47:18;92925.72;;;21.24;36.05
9229;BME280;4649;42.644;23.284;2022-12-08T09:49:58;92853.25;;;20.80;37.13
9229;BME280;4649;42.644;23.284;2022-12-08T09:52:32;92925.69;;;22.40;34.79
9229;BME280;4649;42.644;23.284;2022-12-08T09:55:05;92926.06;;;22.70;33.85
9229;BME280;4649;42.644;23.284;2022-12-08T09:57:37;92840.84;;;21.71;34.94
9229;BME280;4649;42.644;23.284;2022-12-08T10:00:13;92916.88;;;22.07;34.51
9229;BME280;4649;42.644;23.284;2022-12-08T10:02:46;92798.78;;;19.44;38.32
9229;BME280;4649;42.644;23.284;2022-12-08T10:05:16;92772.19;;;18.85;39.25
9229;BME280;4649;42.644;23.284;2022-12-08T10:07:59;92861.94;;;16.99;45.77
9229;BME280;4649;42.644;23.284;2022-12-08T10:14:02;92890.09;;;18.05;45.68
9229;BME280;4649;42.644;23.284;2022-12-08T10:16:39;92747.03;;;17.19;43.83
9229;BME280;4649;42.644;23.284;2022-12-08T10:19:13;92846.53;;;16.61;48.81
9229;BME280;4649;42.644;23.284;2022-12-08T10:21:43;92888.34;;;19.79;42.11
9229;BME280;4649;42.644;23.284;2022-12-08T10:24:19;92824.19;;;20.38;39.93
9229;BME280;4649;42.644;23.284;2022-12-08T10:26:52;92877.69;;;20.69;39.76
9229;BME280;4649;42.644;23.284;2022-12-08T10:29:25;92830.94;;;21.34;37.34
9229;BME280;4649;42.644;23.284;2022-12-08T10:31:52;92857.59;;;21.99;35.94
9229;BME280;4649;42.644;23.284;2022-12-08T10:34:21;92876.38;;;21.42;36.63
9229;BME280;4649;42.644;23.284;2022-12-08T10:36:51;92811.09;;;20.70;37.60
9229;BME280;4649;42.644;23.284;2022-12-08T10:39:35;92875.25;;;21.04;37.56
9229;BME280;4649;42.644;23.284;2022-12-08T10:42:17;92871.09;;;20.96;37.06
9229;BME280;4649;42.644;23.284;2022-12-08T10:44:57;92806.53;;;20.73;37.37
9229;BME280;4649;42.644;23.284;2022-12-08T10:47:26;92802.69;;;20.92;37.46
9229;BME280;4649;42.644;23.284;2022-12-08T10:50:27;92856.88;;;20.26;38.20
9229;BME280;4649;42.644;23.284;2022-12-08T10:53:14;92785.66;;;19.28;38.99
9229;BME280;4649;42.644;23.284;2022-12-08T10:55:50;92858.78;;;17.43;44.65
9229;BME280;4649;42.644;23.284;2022-12-08T10:58:34;92841.28;;;18.69;42.32
9229;BME280;4649;42.644;23.284;2022-12-08T11:01:15;92853.34;;;18.58;41.24
9229;BME280;4649;42.644;23.284;2022-12-08T11:03:48;92756.94;;;15.78;46.36
9229;BME280;4649;42.644;23.284;2022-12-08T11:06:56;92819.31;;;18.24;43.21
9229;BME280;4649;42.644;23.284;2022-12-08T11:09:38;92851.06;;;16.79;45.77
9229;BME280;4649;42.644;23.284;2022-12-08T11:12:28;92682.19;;;16.01;45.84
9229;BME280;4649;42.644;23.284;2022-12-08T11:15:17;92835.63;;;18.44;43.61
9229;BME280;4649;42.644;23.284;2022-12-08T11:17:58;92815.28;;;19.29;40.25
9229;BME280;4649;42.644;23.284;2022-12-08T11:20:37;92705.34;;;18.58;40.48
9229;BME280;4649;42.644;23.284;2022-12-08T11:23:18;92684.81;;;18.74;39.87
9229;BME280;4649;42.644;23.284;2022-12-08T11:25:52;92654.53;;;19.11;38.73
9229;BME280;4649;42.644;23.284;2022-12-08T11:28:23;92804.59;;;20.02;39.40
9229;BME280;4649;42.644;23.284;2022-12-08T11:30:55;92816.69;;;19.99;39.78
9229;BME280;4649;42.644;23.284;2022-12-08T11:33:35;92713.19;;;19.31;39.37
9229;BME280;4649;42.644;23.284;2022-12-08T11:36:06;92782.56;;;19.16;39.93
9229;BME280;4649;42.644;23.284;2022-12-08T11:38:40;92779.66;;;18.77;41.44
9229;BME280;4649;42.644;23.284;2022-12-08T11:41:10;92788.44;;;18.83;41.59
9229;BME280;4649;42.644;23.284;2022-12-08T11:43:47;92786.78;;;19.10;41.17
9229;BME280;4649;42.644;23.284;2022-12-08T11:46:20;92772.94;;;18.56;42.62
9229;BME280;4649;42.644;23.284;2022-12-08T11:48:58;92784.63;;;18.41;42.67
9229;BME280;4649;42.644;23.284;2022-12-08T11:51:36;92775.13;;;18.50;42.00
9229;BME280;4649;42.644;23.284;2022-12-08T11:54:13;92791.81;;;17.87;45.05
9229;BME280;4649;42.644;23.284;2022-12-08T11:56:47;92673.19;;;17.12;44.43
9229;BME280;4649;42.644;23.284;2022-12-08T11:59:27;92785.97;;;17.83;44.22
9229;BME280;4649;42.644;23.284;2022-12-08T12:02:03;92800.69;;;17.65;44.99
9229;BME280;4649;42.644;23.284;2022-12-08T12:04:49;92811.00;;;17.44;45.39
9229;BME280;4649;42.644;23.284;2022-12-08T12:07:52;92743.75;;;16.30;47.17
9229;BME280;4649;42.644;23.284;2022-12-08T12:11:00;92738.63;;;15.66;49.88
9229;BME280;4649;42.644;23.284;2022-12-08T12:13:59;92755.06;;;15.40;50.99
9229;BME280;4649;42.644;23.284;2022-12-08T12:20:03;92776.00;;;14.99;53.06
9229;BME280;4649;42.644;23.284;2022-12-08T12:22:54;92728.94;;;14.85;52.85
9229;BME280;4649;42.644;23.284;2022-12-08T12:25:49;92803.59;;;15.21;52.86
9229;BME280;4649;42.644;23.284;2022-12-08T12:28:44;92802.13;;;14.94;53.90
9229;BME280;4649;42.644;23.284;2022-12-08T12:31:27;92669.34;;;13.92;54.22
9229;BME280;4649;42.644;23.284;2022-12-08T12:34:32;92561.72;;;12.45;56.12
9229;BME280;4649;42.644;23.284;2022-12-08T12:37:41;92656.44;;;11.83;63.39
9229;BME280;4649;42.644;23.284;2022-12-08T12:40:40;92628.84;;;12.03;63.44
9229;BME280;4649;42.644;23.284;2022-12-08T12:43:17;92667.25;;;12.30;62.95
9229;BME280;4649;42.644;23.284;2022-12-08T12:49:51;92787.19;;;13.50;61.88
9229;BME280;4649;42.644;23.284;2022-12-08T13:04:28;92696.22;;;12.83;62.08
9229;BME280;4649;42.644;23.284;2022-12-08T13:07:27;92763.63;;;13.39;62.83
9229;BME280;4649;42.644;23.284;2022-12-08T13:10:20;92650.78;;;12.28;62.55
9229;BME280;4649;42.644;23.284;2022-12-08T13:13:15;92547.84;;;11.75;63.00
9229;BME280;4649;42.644;23.284;2022-12-08T13:16:44;92640.28;;;12.38;61.70
9229;BME280;4649;42.644;23.284;2022-12-08T16:36:36;92678.53;;;7.81;95.15
9229;BME280;4649;42.644;23.284;2022-12-08T16:39:18;92801.72;;;8.69;93.94
